Time;durP1;ratioP1;P1;durP2;ratioP2;P2;SDS_P1;SDS_P2;PMS_P1;PMS_P2;Temp;Humidity;BMP_temperature;BMP_pressure;BME280_temperature;BME280_humidity;BME280_pressure;Samples;Min_cycle;Max_cycle;Signal;HPM_P1;HPM_P2
2022/04/26 03:38:08;;;;;;;20.08;13.52;;;;;;;;;;4981591;28;20429;-81
2022/04/26 03:40:34;;;;;;;19.10;13.82;;;;;;;;;;4982001;28;21031;-82
2022/04/26 03:43:02;;;;;;;16.80;12.70;;;;;;;;;;4983173;28;21001;-81
2022/04/26 03:45:28;;;;;;;19.40;13.95;;;;;;;;;;4983847;28;20442;-81
2022/04/26 03:47:54;;;;;;;18.33;13.80;;;;;;;;;;4981694;28;20437;-81
2022/04/26 03:50:21;;;;;;;16.58;13.30;;;;;;;;;;4982690;28;20433;-81
2022/04/26 03:52:52;;;;;;;19.02;12.38;;;;;;;;;;4978283;28;20437;-80
2022/04/26 03:55:19;;;;;;;15.90;12.07;;;;;;;;;;4980066;28;20427;-81
2022/04/26 03:57:45;;;;;;;20.67;13.37;;;;;;;;;;4979188;28;20468;-80
2022/04/26 04:00:12;;;;;;;18.88;13.57;;;;;;;;;;4981386;28;20489;-80
2022/04/26 04:02:38;;;;;;;19.80;13.57;;;;;;;;;;4981990;28;20453;-81
2022/04/26 04:05:05;;;;;;;22.08;14.50;;;;;;;;;;4976933;28;20492;-81
2022/04/26 04:07:31;;;;;;;17.75;14.75;;;;;;;;;;4982028;28;20445;-81
2022/04/26 04:09:59;;;;;;;21.23;14.43;;;;;;;;;;4977535;28;20430;-81
2022/04/26 04:12:25;;;;;;;18.63;14.20;;;;;;;;;;4978288;28;20484;-80
2022/04/26 04:14:51;;;;;;;24.23;15.98;;;;;;;;;;4979398;28;20511;-81
2022/04/26 04:17:18;;;;;;;20.38;15.98;;;;;;;;;;4978692;28;20475;-81
2022/04/26 04:19:44;;;;;;;20.23;15.50;;;;;;;;;;4976415;28;20442;-81
2022/04/26 04:22:10;;;;;;;18.47;13.80;;;;;;;;;;4980627;28;20429;-81
2022/04/26 04:24:36;;;;;;;23.30;15.88;;;;;;;;;;4977511;28;20435;-81
2022/04/26 04:27:04;;;;;;;22.98;16.17;;;;;;;;;;4983909;28;20424;-81
2022/04/26 04:29:30;;;;;;;25.13;17.80;;;;;;;;;;4982717;28;21030;-80
2022/04/26 04:31:57;;;;;;;23.45;17.00;;;;;;;;;;4982362;28;20491;-81
2022/04/26 04:34:23;;;;;;;24.98;16.83;;;;;;;;;;4984052;28;20428;-81
2022/04/26 04:36:49;;;;;;;23.83;16.40;;;;;;;;;;4983354;28;20446;-80
2022/04/26 04:39:19;;;;;;;21.20;15.30;;;;;;;;;;4981721;28;20500;-81
2022/04/26 04:41:46;;;;;;;19.97;14.97;;;;;;;;;;4982528;28;22191;-80
2022/04/26 04:44:14;;;;;;;23.83;15.15;;;;;;;;;;4981561;28;21016;-81
2022/04/26 04:46:40;;;;;;;20.63;14.77;;;;;;;;;;4981675;28;20496;-81
2022/04/26 04:49:06;;;;;;;18.42;15.00;;;;;;;;;;4981042;28;20495;-81
2022/04/26 04:51:33;;;;;;;19.80;14.80;;;;;;;;;;4981027;28;20484;-82
2022/04/26 04:53:59;;;;;;;22.55;15.60;;;;;;;;;;4980100;28;20935;-80
2022/04/26 04:56:26;;;;;;;22.13;14.52;;;;;;;;;;4983407;28;20454;-81
2022/04/26 04:58:52;;;;;;;21.52;15.63;;;;;;;;;;4980043;28;20469;-80
2022/04/26 05:01:20;;;;;;;19.75;15.10;;;;;;;;;;4983936;28;20908;-81
2022/04/26 05:03:46;;;;;;;18.38;14.10;;;;;;;;;;4980068;28;20440;-80
2022/04/26 05:06:13;;;;;;;21.70;15.52;;;;;;;;;;4983212;28;20445;-82
2022/04/26 05:08:39;;;;;;;20.30;14.65;;;;;;;;;;4983509;28;20434;-81
2022/04/26 05:11:06;;;;;;;18.40;13.73;;;;;;;;;;4984832;28;20438;-82
2022/04/26 05:13:32;;;;;;;21.95;15.30;;;;;;;;;;4979849;28;20439;-82
2022/04/26 05:15:58;;;;;;;22.02;15.73;;;;;;;;;;4980867;28;20430;-81
2022/04/26 05:18:27;;;;;;;18.08;14.10;;;;;;;;;;4982043;28;20492;-82
2022/04/26 05:20:53;;;;;;;19.13;14.80;;;;;;;;;;4981901;28;20451;-82
2022/04/26 05:26:04;;;;;;;26.38;18.05;;;;;;;;;;4983826;28;20438;-81
2022/04/26 05:28:31;;;;;;;22.50;16.52;;;;;;;;;;4981707;28;20437;-81
2022/04/26 05:30:57;;;;;;;21.00;16.13;;;;;;;;;;4983094;28;20452;-81
2022/04/26 05:33:25;;;;;;;23.10;15.60;;;;;;;;;;4977882;28;20428;-82
2022/04/26 05:35:53;;;;;;;25.10;17.30;;;;;;;;;;4981916;28;20444;-81
2022/04/26 05:38:19;;;;;;;22.50;16.80;;;;;;;;;;4981372;28;20438;-83
2022/04/26 05:40:46;;;;;;;25.35;16.35;;;;;;;;;;4980310;28;20450;-83
2022/04/26 05:43:12;;;;;;;20.55;17.20;;;;;;;;;;4979514;28;20432;-82
2022/04/26 05:45:38;;;;;;;25.55;17.02;;;;;;;;;;4983561;28;20445;-82
2022/04/26 05:48:05;;;;;;;22.60;17.20;;;;;;;;;;4984278;28;20519;-82
2022/04/26 05:50:31;;;;;;;24.90;17.17;;;;;;;;;;4983411;28;20593;-83
2022/04/26 05:52:58;;;;;;;22.10;16.77;;;;;;;;;;4980563;28;20436;-81
2022/04/26 05:55:25;;;;;;;21.05;16.75;;;;;;;;;;4985094;28;20500;-82
2022/04/26 05:57:51;;;;;;;18.63;15.15;;;;;;;;;;4983049;28;20440;-82
2022/04/26 06:00:18;;;;;;;19.73;16.10;;;;;;;;;;4984042;28;20441;-82
2022/04/26 06:02:44;;;;;;;20.70;16.38;;;;;;;;;;4983403;28;20434;-81
2022/04/26 06:05:10;;;;;;;22.80;16.98;;;;;;;;;;4985869;28;20481;-82
2022/04/26 06:07:37;;;;;;;22.08;16.15;;;;;;;;;;4984030;28;20443;-82
2022/04/26 06:10:04;;;;;;;22.48;15.63;;;;;;;;;;4983208;28;20432;-83
2022/04/26 06:12:31;;;;;;;21.33;15.65;;;;;;;;;;4985510;28;20803;-81
2022/04/26 06:14:57;;;;;;;17.30;14.52;;;;;;;;;;4984826;28;20439;-83
2022/04/26 06:17:24;;;;;;;19.58;14.15;;;;;;;;;;4984228;28;20864;-81
2022/04/26 06:19:50;;;;;;;18.08;14.35;;;;;;;;;;4979828;28;20490;-81
2022/04/26 06:22:17;;;;;;;13.95;12.10;;;;;;;;;;4982451;28;20432;-82
2022/04/26 06:24:43;;;;;;;18.07;12.63;;;;;;;;;;4980905;28;20474;-83
2022/04/26 06:27:11;;;;;;;14.45;11.65;;;;;;;;;;4983174;28;20432;-83
2022/04/26 06:29:37;;;;;;;14.90;11.82;;;;;;;;;;4980539;28;20494;-82
2022/04/26 06:32:04;;;;;;;15.20;12.02;;;;;;;;;;4982246;28;20447;-83
2022/04/26 06:34:30;;;;;;;13.13;11.60;;;;;;;;;;4981757;28;20516;-82
2022/04/26 06:36:57;;;;;;;15.52;12.20;;;;;;;;;;4982355;28;20441;-83
2022/04/26 06:39:23;;;;;;;13.37;11.60;;;;;;;;;;4978450;28;20436;-82
2022/04/26 06:41:49;;;;;;;14.23;11.32;;;;;;;;;;4981811;28;20431;-82
2022/04/26 06:44:17;;;;;;;14.68;11.07;;;;;;;;;;4980182;28;20438;-81
2022/04/26 06:46:43;;;;;;;14.32;10.75;;;;;;;;;;4984144;28;20431;-83
2022/04/26 06:49:09;;;;;;;14.40;11.23;;;;;;;;;;4976952;28;20428;-82
2022/04/26 06:51:40;;;;;;;16.25;12.43;;;;;;;;;;4978347;28;20830;-81
2022/04/26 06:54:07;;;;;;;17.83;12.40;;;;;;;;;;4980778;28;20444;-83
2022/04/26 06:56:33;;;;;;;15.32;12.57;;;;;;;;;;4981347;28;21040;-83
2022/04/26 06:58:59;;;;;;;14.48;12.18;;;;;;;;;;4981677;28;20645;-82
2022/04/26 07:01:27;;;;;;;15.77;12.75;;;;;;;;;;4983953;28;20440;-82
2022/04/26 07:03:54;;;;;;;14.85;12.35;;;;;;;;;;4979678;28;20440;-83
2022/04/26 07:06:20;;;;;;;16.70;12.25;;;;;;;;;;4982521;28;20432;-82
2022/04/26 07:08:48;;;;;;;16.35;12.60;;;;;;;;;;4981398;28;20438;-81
2022/04/26 07:11:15;;;;;;;16.15;12.43;;;;;;;;;;4979672;28;20443;-82
2022/04/26 07:13:41;;;;;;;15.00;12.50;;;;;;;;;;4981777;28;20439;-82
2022/04/26 07:16:08;;;;;;;16.98;13.48;;;;;;;;;;4980758;28;20861;-82
2022/04/26 07:18:35;;;;;;;18.67;12.30;;;;;;;;;;4979950;28;20469;-82
2022/04/26 07:21:02;;;;;;;14.32;12.38;;;;;;;;;;4982964;28;20962;-82
2022/04/26 07:23:28;;;;;;;15.45;11.82;;;;;;;;;;4979336;28;20926;-82
2022/04/26 07:25:55;;;;;;;14.82;11.85;;;;;;;;;;4980745;28;20845;-82
2022/04/26 07:28:21;;;;;;;14.40;11.52;;;;;;;;;;4979968;28;20432;-82
2022/04/26 07:30:48;;;;;;;13.40;11.40;;;;;;;;;;4981811;28;20458;-83
2022/04/26 07:36:00;;;;;;;14.93;11.60;;;;;;;;;;4983835;28;20543;-83
2022/04/26 07:38:26;;;;;;;14.02;12.02;;;;;;;;;;4979989;28;20453;-82
2022/04/26 07:40:52;;;;;;;13.48;10.50;;;;;;;;;;4980926;28;20439;-82
2022/04/26 07:43:18;;;;;;;15.77;11.17;;;;;;;;;;4981459;28;20428;-83
2022/04/26 07:45:45;;;;;;;12.63;11.07;;;;;;;;;;4980946;28;20511;-82
2022/04/26 07:48:14;;;;;;;13.10;10.10;;;;;;;;;;4981002;28;20469;-82
2022/04/26 07:50:40;;;;;;;17.93;9.37;;;;;;;;;;4978771;28;20436;-83
2022/04/26 07:53:08;;;;;;;11.05;9.82;;;;;;;;;;4979980;28;20481;-83
2022/04/26 07:55:37;;;;;;;11.13;10.03;;;;;;;;;;4980370;28;20529;-83
2022/04/26 07:58:03;;;;;;;12.82;10.57;;;;;;;;;;4980224;28;20435;-82
2022/04/26 08:00:29;;;;;;;12.43;10.20;;;;;;;;;;4982687;28;20444;-83
2022/04/26 08:02:55;;;;;;;12.05;10.32;;;;;;;;;;4985372;28;20435;-83
2022/04/26 08:05:22;;;;;;;12.27;10.98;;;;;;;;;;4985209;28;20448;-83
2022/04/26 08:07:49;;;;;;;14.25;10.70;;;;;;;;;;4984206;28;20438;-83
2022/04/26 08:10:17;;;;;;;14.30;11.35;;;;;;;;;;4987817;28;20440;-82
2022/04/26 08:12:43;;;;;;;12.63;11.40;;;;;;;;;;4986973;28;20433;-83
2022/04/26 08:15:12;;;;;;;12.82;10.57;;;;;;;;;;4987962;28;20435;-83
2022/04/26 08:17:38;;;;;;;12.23;9.65;;;;;;;;;;4985309;28;20434;-83
2022/04/26 08:20:06;;;;;;;10.05;8.70;;;;;;;;;;4985932;28;20519;-83
2022/04/26 08:22:32;;;;;;;8.68;7.78;;;;;;;;;;4984296;28;20427;-84
2022/04/26 08:27:44;;;;;;;8.03;7.23;;;;;;;;;;4984999;28;20513;-84
2022/04/26 08:30:10;;;;;;;10.68;7.30;;;;;;;;;;4986676;28;20496;-83
2022/04/26 08:32:40;;;;;;;11.88;7.10;;;;;;;;;;4987326;28;20510;-83
2022/04/26 08:35:07;;;;;;;7.80;6.90;;;;;;;;;;4987369;28;20429;-83
2022/04/26 08:37:34;;;;;;;7.35;6.55;;;;;;;;;;4986758;28;20993;-83
2022/04/26 08:40:00;;;;;;;8.25;6.85;;;;;;;;;;4986637;28;20430;-84
2022/04/26 08:42:36;;;;;;;8.13;7.00;;;;;;;;;;4988401;28;20527;-82
2022/04/26 08:45:06;;;;;;;9.80;7.10;;;;;;;;;;4986385;28;20438;-84
2022/04/26 08:53:00;;;;;;;12.03;7.83;;;;;;;;;;4982504;28;20419;-83
2022/04/26 08:55:27;;;;;;;9.93;7.90;;;;;;;;;;4984484;28;20444;-84
2022/04/26 08:57:53;;;;;;;9.90;7.50;;;;;;;;;;4983735;28;20434;-84
2022/04/26 09:00:20;;;;;;;9.33;8.43;;;;;;;;;;4985292;28;20525;-83
2022/04/26 09:02:59;;;;;;;10.60;8.18;;;;;;;;;;4982321;28;20430;-84
2022/04/26 09:05:26;;;;;;;9.00;8.10;;;;;;;;;;4984979;28;20465;-84
2022/04/26 09:07:52;;;;;;;9.20;8.30;;;;;;;;;;4982463;28;21387;-84
2022/04/26 09:10:18;;;;;;;10.15;9.10;;;;;;;;;;4983419;28;20500;-83
2022/04/26 09:13:07;;;;;;;10.15;9.15;;;;;;;;;;4980062;28;20489;-82
2022/04/26 09:15:39;;;;;;;10.32;9.32;;;;;;;;;;4983896;28;20439;-84
2022/04/26 09:18:13;;;;;;;11.07;9.77;;;;;;;;;;4983510;28;20422;-84
2022/04/26 09:20:39;;;;;;;12.95;9.40;;;;;;;;;;4981917;28;20439;-84
2022/04/26 09:23:14;;;;;;;10.93;9.80;;;;;;;;;;4983847;28;20998;-83
2022/04/26 09:25:40;;;;;;;11.63;9.50;;;;;;;;;;4983778;28;20436;-84
2022/04/26 09:28:07;;;;;;;9.95;8.95;;;;;;;;;;4983290;28;20488;-83
2022/04/26 09:30:35;;;;;;;12.10;9.30;;;;;;;;;;4982851;28;20440;-83
2022/04/26 09:33:02;;;;;;;10.50;9.27;;;;;;;;;;4982650;28;20435;-83
2022/04/26 09:35:31;;;;;;;11.23;9.35;;;;;;;;;;4983620;28;20442;-83
2022/04/26 09:37:58;;;;;;;11.50;10.30;;;;;;;;;;4980723;28;20934;-83
2022/04/26 09:40:27;;;;;;;11.25;9.50;;;;;;;;;;4982990;28;20521;-84
2022/04/26 09:42:54;;;;;;;11.65;10.27;;;;;;;;;;4982299;28;20444;-84
2022/04/26 09:45:20;;;;;;;10.50;9.33;;;;;;;;;;4985444;28;20861;-85
2022/04/26 09:47:47;;;;;;;10.52;8.52;;;;;;;;;;4984666;28;20522;-84
2022/04/26 09:50:15;;;;;;;9.70;8.70;;;;;;;;;;4981113;28;20509;-82
2022/04/26 09:52:42;;;;;;;12.40;8.82;;;;;;;;;;4981766;28;20438;-82
2022/04/26 09:55:09;;;;;;;10.70;8.50;;;;;;;;;;4983816;28;20532;-84
2022/04/26 09:57:36;;;;;;;10.07;7.00;;;;;;;;;;4983486;28;20446;-84
2022/04/26 10:00:03;;;;;;;8.15;6.65;;;;;;;;;;4980774;28;20459;-84
2022/04/26 10:02:31;;;;;;;9.38;7.35;;;;;;;;;;4982405;28;20549;-83
2022/04/26 10:04:59;;;;;;;8.18;7.30;;;;;;;;;;4981636;28;20436;-83
2022/04/26 10:07:28;;;;;;;7.90;6.70;;;;;;;;;;4977865;28;20562;-84
2022/04/26 10:09:55;;;;;;;9.35;7.15;;;;;;;;;;4982338;28;21047;-84
2022/04/26 10:12:22;;;;;;;11.50;8.10;;;;;;;;;;4980388;28;20496;-84
2022/04/26 10:14:49;;;;;;;9.25;7.13;;;;;;;;;;4980223;28;20439;-83
2022/04/26 10:17:19;;;;;;;9.07;7.78;;;;;;;;;;4980841;28;20938;-84
2022/04/26 10:19:45;;;;;;;8.55;7.30;;;;;;;;;;4980174;28;20432;-83
2022/04/26 10:22:15;;;;;;;7.10;6.40;;;;;;;;;;4981384;28;20435;-83
2022/04/26 10:25:02;;;;;;;8.32;7.35;;;;;;;;;;4979095;28;20434;-84
2022/04/26 10:27:29;;;;;;;8.43;6.90;;;;;;;;;;4981238;28;20949;-84
2022/04/26 10:29:55;;;;;;;9.57;7.60;;;;;;;;;;4979433;28;20485;-84
2022/04/26 10:32:29;;;;;;;7.90;7.20;;;;;;;;;;4979244;28;21004;-84
2022/04/26 10:34:55;;;;;;;7.57;6.70;;;;;;;;;;4982396;28;20434;-84
2022/04/26 10:37:32;;;;;;;7.40;6.50;;;;;;;;;;4978953;28;20432;-84
2022/04/26 10:40:04;;;;;;;7.60;6.05;;;;;;;;;;4979471;28;20436;-84
2022/04/26 10:42:35;;;;;;;6.57;5.82;;;;;;;;;;4981395;28;20459;-84
2022/04/26 10:45:07;;;;;;;6.40;5.80;;;;;;;;;;4981055;28;20457;-84
2022/04/26 10:47:34;;;;;;;8.10;6.90;;;;;;;;;;4982579;28;20692;-84
2022/04/26 10:50:00;;;;;;;7.72;6.70;;;;;;;;;;4982008;28;21132;-84
2022/04/26 10:52:33;;;;;;;8.10;7.30;;;;;;;;;;4981788;28;20440;-84
2022/04/26 10:55:06;;;;;;;8.20;7.40;;;;;;;;;;4982429;28;20431;-84
2022/04/26 10:57:33;;;;;;;9.10;7.70;;;;;;;;;;4981845;28;20783;-84
2022/04/26 11:00:00;;;;;;;10.80;9.32;;;;;;;;;;4980225;28;20932;-84
2022/04/26 11:02:28;;;;;;;11.32;10.10;;;;;;;;;;4980605;28;20473;-83
2022/04/26 11:04:56;;;;;;;11.35;9.07;;;;;;;;;;4980204;28;20443;-84
2022/04/26 11:07:25;;;;;;;10.43;9.43;;;;;;;;;;4980065;28;20487;-84
2022/04/26 11:09:53;;;;;;;10.90;8.73;;;;;;;;;;4980386;28;20438;-84
2022/04/26 11:12:21;;;;;;;11.13;10.02;;;;;;;;;;4981688;28;20441;-84
2022/04/26 11:14:48;;;;;;;11.20;9.97;;;;;;;;;;4981680;28;20471;-84
2022/04/26 11:17:15;;;;;;;11.10;9.90;;;;;;;;;;4981847;28;20457;-85
2022/04/26 11:19:48;;;;;;;10.77;9.65;;;;;;;;;;4978423;28;20432;-84
2022/04/26 11:22:15;;;;;;;10.73;9.10;;;;;;;;;;4979389;28;20465;-84
2022/04/26 11:30:15;;;;;;;11.30;10.10;;;;;;;;;;4982194;28;20807;-84
2022/04/26 11:32:42;;;;;;;12.32;11.02;;;;;;;;;;4980284;28;20514;-85
2022/04/26 11:35:09;;;;;;;12.38;10.90;;;;;;;;;;4982086;28;20434;-84
2022/04/26 11:37:43;;;;;;;11.75;10.48;;;;;;;;;;4981866;28;20504;-84
2022/04/26 11:40:09;;;;;;;11.88;10.32;;;;;;;;;;4982224;28;20438;-83
2022/04/26 11:42:37;;;;;;;15.57;12.10;;;;;;;;;;4982975;28;20822;-84
2022/04/26 11:45:04;;;;;;;12.80;10.27;;;;;;;;;;4981509;28;20498;-84
2022/04/26 11:47:40;;;;;;;11.70;10.50;;;;;;;;;;4982112;28;20436;-84
2022/04/26 11:50:10;;;;;;;15.10;11.93;;;;;;;;;;4980679;28;20422;-84
2022/04/26 11:52:37;;;;;;;12.57;11.27;;;;;;;;;;4978747;28;20430;-83
2022/04/26 11:55:04;;;;;;;12.85;11.60;;;;;;;;;;4980751;28;20479;-84
2022/04/26 11:57:33;;;;;;;13.13;11.17;;;;;;;;;;4982459;28;20429;-84
2022/04/26 12:00:01;;;;;;;12.75;11.45;;;;;;;;;;4980810;28;20438;-84
2022/04/26 12:02:29;;;;;;;12.33;11.03;;;;;;;;;;4981986;28;20852;-83
2022/04/26 12:04:56;;;;;;;12.07;10.73;;;;;;;;;;4980100;28;20916;-85
2022/04/26 12:07:22;;;;;;;12.15;10.85;;;;;;;;;;4980111;28;20469;-85
2022/04/26 12:09:48;;;;;;;13.93;11.07;;;;;;;;;;4980694;28;20429;-84
2022/04/26 12:12:15;;;;;;;13.70;10.82;;;;;;;;;;4983194;28;20937;-84
2022/04/26 12:14:42;;;;;;;11.73;10.18;;;;;;;;;;4981737;28;20495;-84
2022/04/26 12:17:18;;;;;;;12.70;10.90;;;;;;;;;;4983042;28;20510;-84
2022/04/26 12:19:50;;;;;;;14.43;9.50;;;;;;;;;;4979527;28;20435;-83
2022/04/26 12:22:16;;;;;;;11.85;10.65;;;;;;;;;;4982179;28;20851;-84
2022/04/26 12:24:46;;;;;;;13.30;11.18;;;;;;;;;;4980435;28;20921;-84
2022/04/26 12:27:13;;;;;;;11.57;10.38;;;;;;;;;;4983512;28;20438;-84
2022/04/26 12:29:40;;;;;;;11.60;9.77;;;;;;;;;;4980353;28;20448;-85
2022/04/26 12:32:08;;;;;;;11.82;9.23;;;;;;;;;;4981413;28;20920;-84
2022/04/26 12:34:36;;;;;;;11.30;9.20;;;;;;;;;;4978325;28;20824;-84
2022/04/26 12:37:04;;;;;;;12.68;9.90;;;;;;;;;;4980991;28;20442;-84
2022/04/26 12:39:41;;;;;;;11.32;10.07;;;;;;;;;;4978089;28;20904;-85
2022/04/26 12:42:08;;;;;;;13.93;9.40;;;;;;;;;;4980921;28;20416;-84
2022/04/26 12:44:35;;;;;;;10.55;9.50;;;;;;;;;;4979172;28;20491;-84
2022/04/26 12:52:49;;;;;;;12.05;10.45;;;;;;;;;;4985212;28;20528;-84
2022/04/26 12:55:23;;;;;;;11.27;9.20;;;;;;;;;;4983413;28;20589;-85
2022/04/26 12:57:50;;;;;;;9.60;8.40;;;;;;;;;;4983076;28;20494;-85
2022/04/26 13:00:18;;;;;;;13.05;8.88;;;;;;;;;;4982697;28;20431;-84
2022/04/26 13:02:45;;;;;;;12.23;8.65;;;;;;;;;;4981381;28;20510;-84
2022/04/26 13:05:11;;;;;;;9.10;8.18;;;;;;;;;;4984693;28;20442;-84
2022/04/26 13:07:38;;;;;;;13.02;7.90;;;;;;;;;;4982622;28;20439;-85
2022/04/26 13:10:06;;;;;;;12.73;8.45;;;;;;;;;;4981335;28;20514;-85
2022/04/26 13:12:32;;;;;;;11.33;7.40;;;;;;;;;;4980569;28;20787;-84
2022/04/26 13:14:59;;;;;;;10.32;7.28;;;;;;;;;;4982186;28;20922;-85
2022/04/26 13:17:25;;;;;;;14.05;7.97;;;;;;;;;;4983934;28;20496;-85
2022/04/26 13:19:52;;;;;;;10.52;7.38;;;;;;;;;;4982208;28;20426;-84
2022/04/26 13:22:18;;;;;;;11.30;8.43;;;;;;;;;;4984147;28;20426;-85
2022/04/26 13:24:45;;;;;;;10.57;7.45;;;;;;;;;;4983909;28;20420;-85
2022/04/26 13:27:12;;;;;;;12.35;7.80;;;;;;;;;;4986625;28;20443;-85
2022/04/26 13:29:39;;;;;;;9.90;7.57;;;;;;;;;;4984430;28;20975;-85
2022/04/26 13:32:05;;;;;;;15.77;9.17;;;;;;;;;;4985200;28;20426;-85
2022/04/26 13:34:32;;;;;;;9.00;7.53;;;;;;;;;;4982595;28;20430;-86
2022/04/26 13:36:58;;;;;;;11.00;8.30;;;;;;;;;;4984621;28;20493;-84
2022/04/26 13:39:25;;;;;;;11.25;8.75;;;;;;;;;;4982845;28;20521;-86
2022/04/26 13:41:51;;;;;;;11.90;8.75;;;;;;;;;;4985497;28;20478;-85
2022/04/26 13:44:20;;;;;;;11.13;9.15;;;;;;;;;;4980901;28;20432;-85
2022/04/26 13:46:46;;;;;;;11.15;8.48;;;;;;;;;;4985580;28;20438;-84
2022/04/26 13:49:12;;;;;;;10.80;8.70;;;;;;;;;;4982228;28;20489;-84
2022/04/26 13:51:39;;;;;;;10.98;8.80;;;;;;;;;;4983797;28;20474;-85
2022/04/26 13:54:05;;;;;;;13.43;9.63;;;;;;;;;;4982830;28;20462;-85
2022/04/26 13:56:31;;;;;;;13.32;8.90;;;;;;;;;;4984955;28;20442;-84
2022/04/26 13:58:58;;;;;;;11.07;9.10;;;;;;;;;;4983389;28;20431;-84
2022/04/26 14:01:25;;;;;;;10.68;8.35;;;;;;;;;;4983695;28;20450;-85
2022/04/26 14:03:52;;;;;;;9.25;7.80;;;;;;;;;;4981450;28;20432;-85
2022/04/26 14:06:21;;;;;;;10.30;7.60;;;;;;;;;;4984545;28;20414;-85
2022/04/26 14:08:49;;;;;;;9.30;7.30;;;;;;;;;;4981107;28;20430;-85
2022/04/26 14:11:16;;;;;;;11.95;7.43;;;;;;;;;;4981823;28;20806;-85
2022/04/26 14:21:51;;;;;;;7.68;6.57;;;;;;;;;;4983432;28;21243;-84
2022/04/26 14:24:17;;;;;;;10.45;6.55;;;;;;;;;;4983069;28;20490;-85
2022/04/26 14:26:43;;;;;;;8.10;5.70;;;;;;;;;;4980940;28;20465;-85
2022/04/26 14:29:09;;;;;;;8.20;6.20;;;;;;;;;;4979805;28;20460;-85
2022/04/26 14:31:36;;;;;;;7.32;5.97;;;;;;;;;;4983194;28;20418;-85
2022/04/26 14:34:03;;;;;;;8.70;6.30;;;;;;;;;;4983500;28;20529;-85
2022/04/26 14:36:30;;;;;;;7.88;6.57;;;;;;;;;;4981603;28;20499;-84
2022/04/26 14:38:57;;;;;;;9.20;6.72;;;;;;;;;;4982165;28;20438;-85
2022/04/26 14:41:23;;;;;;;6.60;5.90;;;;;;;;;;4982689;28;20945;-85
2022/04/26 14:43:49;;;;;;;9.70;6.65;;;;;;;;;;4981098;28;20434;-85
2022/04/26 14:46:15;;;;;;;8.07;6.80;;;;;;;;;;4984165;28;20427;-85
2022/04/26 14:48:42;;;;;;;10.27;6.85;;;;;;;;;;4979600;28;20487;-84
2022/04/26 14:51:10;;;;;;;12.50;7.18;;;;;;;;;;4982112;28;20449;-84
2022/04/26 14:53:38;;;;;;;7.95;7.10;;;;;;;;;;4982671;28;20443;-85
2022/04/26 14:56:04;;;;;;;8.82;6.97;;;;;;;;;;4981749;28;20539;-85
2022/04/26 14:58:31;;;;;;;8.10;6.20;;;;;;;;;;4982197;28;20462;-85
2022/04/26 15:00:57;;;;;;;9.60;7.05;;;;;;;;;;4985161;28;20504;-84
2022/04/26 15:03:24;;;;;;;10.52;7.00;;;;;;;;;;4983101;28;20491;-84
2022/04/26 15:05:50;;;;;;;10.30;7.03;;;;;;;;;;4982280;28;20860;-85
2022/04/26 15:11:01;;;;;;;6.80;6.10;;;;;;;;;;4982239;28;20433;-84
2022/04/26 15:18:55;;;;;;;7.57;6.00;;;;;;;;;;4983774;28;20488;-85
2022/04/26 15:21:23;;;;;;;8.53;6.40;;;;;;;;;;4983617;28;20492;-85
2022/04/26 15:23:50;;;;;;;12.80;6.23;;;;;;;;;;4984871;28;20430;-84
2022/04/26 15:26:17;;;;;;;11.70;6.20;;;;;;;;;;4984836;28;20443;-84
2022/04/26 15:28:44;;;;;;;8.07;5.88;;;;;;;;;;4983919;28;20433;-84
2022/04/26 15:31:10;;;;;;;9.70;5.82;;;;;;;;;;4981969;28;20428;-84
2022/04/26 15:33:38;;;;;;;8.63;5.83;;;;;;;;;;4983724;28;20424;-85
2022/04/26 15:36:05;;;;;;;8.65;6.10;;;;;;;;;;4983116;28;20473;-83
2022/04/26 15:38:32;;;;;;;7.18;5.72;;;;;;;;;;4983280;28;20492;-85
2022/04/26 15:41:05;;;;;;;6.78;5.95;;;;;;;;;;4983285;28;20444;-84
2022/04/26 15:43:33;;;;;;;9.05;4.85;;;;;;;;;;4981654;28;20426;-84
2022/04/26 15:45:59;;;;;;;9.82;5.30;;;;;;;;;;4980677;28;20502;-84
2022/04/26 15:48:26;;;;;;;7.20;4.53;;;;;;;;;;4980273;28;20941;-85
2022/04/26 15:50:52;;;;;;;10.27;5.00;;;;;;;;;;4984822;28;20466;-85
2022/04/26 15:53:19;;;;;;;10.55;5.10;;;;;;;;;;4982786;28;20447;-83
2022/04/26 15:55:45;;;;;;;10.95;4.70;;;;;;;;;;4981615;28;20466;-83
2022/04/26 15:58:11;;;;;;;7.63;4.30;;;;;;;;;;4978991;28;20901;-84
2022/04/26 16:00:39;;;;;;;8.40;4.68;;;;;;;;;;4984579;28;20852;-84
2022/04/26 16:03:05;;;;;;;11.80;4.80;;;;;;;;;;4979633;28;20945;-84
2022/04/26 16:05:32;;;;;;;7.27;4.97;;;;;;;;;;4982843;28;20557;-84
2022/04/26 16:07:58;;;;;;;7.22;4.55;;;;;;;;;;4982003;28;20434;-83
2022/04/26 16:21:25;;;;;;;8.38;4.45;;;;;;;;;;4984781;28;20422;-85
2022/04/26 16:23:52;;;;;;;7.57;4.60;;;;;;;;;;4985166;28;20445;-84
2022/04/26 16:26:19;;;;;;;8.57;4.80;;;;;;;;;;4987540;28;20429;-85
2022/04/26 16:28:47;;;;;;;8.57;4.30;;;;;;;;;;4983908;28;20436;-84
2022/04/26 16:31:14;;;;;;;6.20;4.40;;;;;;;;;;4984156;28;20464;-85
2022/04/26 16:33:41;;;;;;;8.30;4.00;;;;;;;;;;4986332;28;20430;-85
2022/04/26 16:36:09;;;;;;;7.07;4.25;;;;;;;;;;4986003;28;20425;-84
2022/04/26 16:38:36;;;;;;;8.48;4.50;;;;;;;;;;4986306;28;20431;-84
2022/04/26 16:41:04;;;;;;;7.43;4.55;;;;;;;;;;4985156;28;20443;-84
2022/04/26 16:43:30;;;;;;;9.18;4.90;;;;;;;;;;4986284;28;20436;-83
2022/04/26 16:45:57;;;;;;;6.88;4.88;;;;;;;;;;4986111;28;20465;-84
2022/04/26 16:48:24;;;;;;;8.87;5.00;;;;;;;;;;4980545;28;20511;-86
2022/04/26 16:50:51;;;;;;;8.23;5.20;;;;;;;;;;4984170;28;20527;-85
2022/04/26 16:53:18;;;;;;;6.80;4.60;;;;;;;;;;4985115;28;20495;-85
2022/04/26 16:55:44;;;;;;;8.00;4.30;;;;;;;;;;4984269;28;20920;-87
2022/04/26 16:58:11;;;;;;;7.40;4.63;;;;;;;;;;4986233;28;20434;-85
2022/04/26 17:00:39;;;;;;;7.90;5.10;;;;;;;;;;4985439;28;20456;-85
2022/04/26 17:03:05;;;;;;;9.10;4.07;;;;;;;;;;4983386;28;20440;-84
2022/04/26 17:05:33;;;;;;;9.15;4.35;;;;;;;;;;4988195;28;20441;-85
2022/04/26 17:07:59;;;;;;;7.07;4.53;;;;;;;;;;4986438;28;20418;-86
2022/04/26 17:10:26;;;;;;;8.98;4.78;;;;;;;;;;4985338;28;20507;-85
2022/04/26 17:12:52;;;;;;;10.93;5.10;;;;;;;;;;4985723;28;20527;-86
2022/04/26 17:15:19;;;;;;;8.63;4.40;;;;;;;;;;4988209;28;20444;-85
2022/04/26 17:17:46;;;;;;;6.60;4.60;;;;;;;;;;4985318;28;20432;-85
2022/04/26 17:20:14;;;;;;;7.90;4.50;;;;;;;;;;4984069;28;20449;-85
2022/04/26 17:22:43;;;;;;;6.40;4.20;;;;;;;;;;4981074;28;20470;-85
2022/04/26 17:25:15;;;;;;;9.35;4.70;;;;;;;;;;4983372;28;20910;-85
2022/04/26 17:27:42;;;;;;;8.00;4.60;;;;;;;;;;4983891;28;20594;-85
2022/04/26 17:30:10;;;;;;;6.10;4.13;;;;;;;;;;4985163;28;20801;-85
2022/04/26 17:32:36;;;;;;;6.70;4.10;;;;;;;;;;4983711;28;20430;-85
2022/04/26 17:35:03;;;;;;;7.75;4.60;;;;;;;;;;4979717;28;20427;-85
2022/04/26 17:37:29;;;;;;;8.40;4.72;;;;;;;;;;4982340;28;20439;-86
2022/04/26 17:39:57;;;;;;;9.85;4.32;;;;;;;;;;4981722;28;20457;-85
2022/04/26 17:42:24;;;;;;;9.00;4.40;;;;;;;;;;4983976;28;20498;-84
2022/04/26 17:44:51;;;;;;;11.70;4.80;;;;;;;;;;4981744;28;20926;-84
2022/04/26 17:47:18;;;;;;;7.57;4.60;;;;;;;;;;4982534;28;20444;-85
2022/04/26 17:49:46;;;;;;;7.15;4.47;;;;;;;;;;4982752;28;20432;-85
2022/04/26 17:52:13;;;;;;;9.67;4.80;;;;;;;;;;4982415;28;20430;-85
2022/04/26 17:57:24;;;;;;;6.32;4.32;;;;;;;;;;4985366;28;20437;-85
2022/04/26 17:59:51;;;;;;;7.22;3.90;;;;;;;;;;4980711;28;20847;-86
2022/04/26 18:02:17;;;;;;;8.45;4.18;;;;;;;;;;4982826;28;20538;-85
2022/04/26 18:04:43;;;;;;;8.23;4.63;;;;;;;;;;4982254;28;20786;-85
2022/04/26 18:07:10;;;;;;;8.38;4.60;;;;;;;;;;4982675;28;20450;-85
2022/04/26 18:09:37;;;;;;;11.38;4.60;;;;;;;;;;4983954;28;20466;-84
2022/04/26 18:12:04;;;;;;;7.22;4.13;;;;;;;;;;4982880;28;20523;-85
2022/04/26 18:14:31;;;;;;;9.05;5.20;;;;;;;;;;4982844;28;20534;-85
2022/04/26 18:16:57;;;;;;;7.95;3.95;;;;;;;;;;4981732;28;20445;-85
2022/04/26 18:19:24;;;;;;;7.95;4.80;;;;;;;;;;4980148;28;20434;-84
2022/04/26 18:21:50;;;;;;;8.07;4.28;;;;;;;;;;4982028;28;20493;-85
2022/04/26 18:24:18;;;;;;;10.40;5.30;;;;;;;;;;4985773;28;20460;-85
2022/04/26 18:26:44;;;;;;;8.23;4.82;;;;;;;;;;4982365;28;20927;-85
2022/04/26 18:29:19;;;;;;;8.93;4.70;;;;;;;;;;4979588;28;20990;-84
2022/04/26 18:31:50;;;;;;;8.93;4.57;;;;;;;;;;4981462;28;20494;-84
2022/04/26 18:34:19;;;;;;;9.03;4.67;;;;;;;;;;4981884;28;20519;-84
2022/04/26 18:36:45;;;;;;;8.25;4.30;;;;;;;;;;4980817;28;20434;-84
2022/04/26 18:39:12;;;;;;;9.90;5.10;;;;;;;;;;4981657;28;20516;-84
2022/04/26 18:41:39;;;;;;;7.55;4.50;;;;;;;;;;4982016;28;20996;-84
2022/04/26 18:44:05;;;;;;;7.90;4.82;;;;;;;;;;4977944;28;20858;-84
2022/04/26 18:46:31;;;;;;;8.23;4.50;;;;;;;;;;4981896;28;20463;-84
2022/04/26 18:48:59;;;;;;;7.88;4.60;;;;;;;;;;4980422;28;20433;-84
2022/04/26 18:51:25;;;;;;;10.83;5.40;;;;;;;;;;4983556;28;20879;-83
2022/04/26 18:53:52;;;;;;;8.27;4.68;;;;;;;;;;4980239;28;20431;-83
2022/04/26 18:56:18;;;;;;;6.82;4.70;;;;;;;;;;4981273;28;20447;-83
2022/04/26 18:58:44;;;;;;;8.65;4.63;;;;;;;;;;4977678;28;20438;-82
2022/04/26 19:01:11;;;;;;;9.18;4.60;;;;;;;;;;4982938;28;20443;-83
2022/04/26 19:03:37;;;;;;;8.60;4.63;;;;;;;;;;4983228;28;20487;-83